Airfield :
LOGIN :

Register | Disclaimer

   EN    FR    IT 

 










Legend :    VFR   Marginal VFR   IFR   Intensive IFR   Very Intensive IFR
Visi :
Ceiling :
>= 8 km
>= 3000ft
5 to 8 km
1000 to 3000 ft
1500m to 5 km
500 to 1000 ft
800 to 1500m
200 to 500 ft
< 800m
< 200 ft
Symbols :   Thunderstorms  Fog  Heavy snow  Heavy precipitations  Wind > 20 kt
SIGMETs :     Misc.  Thunderstorms  Icing  Turbulence  Mountain Waves  Volcanic Ashes







- Airport Elevation : 1411 ft
- IATA code : ZHI


LSZG - Grenchen

CURRENT METAR :
  • 132250Z AUTO 06009KT 9999 OVC023 00/M03 Q1013

EXPIRED METARs :
  • 132220Z AUTO 06008KT 9999 BKN024 M00/M03 Q1013
  • 132150Z AUTO 06010KT 9999 BKN025 SCT070 M00/M03 Q1012
  • 132120Z AUTO 07007KT CAVOK M00/M02 Q1013
  • 132050Z AUTO 06009KT CAVOK M00/M02 Q1012
  • 132020Z AUTO 07007KT 9999 NSC M00/M02 Q1012
  • 131950Z AUTO 08007KT 9999 BKN060 SCT080 00/M02 Q1012

TAF AMD TAF LSZG
Valid from the 13 at 16:00 until the 14 at 00:00 UTC


131602Z 1316/1324 08007KT 8000 -SN FEW027 BKN047
TEMPO 1316/1324 NSW
ATIS : +41 32 396 96 33
No reported NOTAMs for that airfield.



MET'MAP, your aeronautical weather chart ! - Copyright ORBIFLY December 2007 - Disclaimer

ORBIFLY MET'MAP TEAM :

Programming & Development : Alexandra Zaïnal
Concept & Development : Baudouin d'Aumeries
Co-Development & Prog : Marc-Olivier Méhu
Technical & hardware support : Manuel Goepfert

Contact : metmap@orbifly.com




SOURCES & CREDITS :

   NOAA